sensor_id;sensor_type;location;lat;lon;timestamp;P1;durP1;ratioP1;P2;durP2;ratioP2
56285;SDS011;42191;47.562;9.686;2022-11-15T00:00:40;35.80;;;33.67;;
56285;SDS011;42191;47.562;9.686;2022-11-15T00:03:07;35.60;;;33.40;;
56285;SDS011;42191;47.562;9.686;2022-11-15T00:05:36;35.47;;;33.28;;
56285;SDS011;42191;47.562;9.686;2022-11-15T00:08:02;37.03;;;34.80;;
56285;SDS011;42191;47.562;9.686;2022-11-15T00:10:28;35.35;;;33.05;;
56285;SDS011;42191;47.562;9.686;2022-11-15T00:12:54;34.53;;;32.33;;
56285;SDS011;42191;47.562;9.686;2022-11-15T00:15:20;35.38;;;33.17;;
56285;SDS011;42191;47.562;9.686;2022-11-15T00:17:49;36.08;;;33.88;;
56285;SDS011;42191;47.562;9.686;2022-11-15T00:20:16;36.40;;;34.20;;
56285;SDS011;42191;47.562;9.686;2022-11-15T00:22:42;34.58;;;32.50;;
56285;SDS011;42191;47.562;9.686;2022-11-15T00:25:09;33.10;;;31.02;;
56285;SDS011;42191;47.562;9.686;2022-11-15T00:27:35;34.80;;;32.70;;
56285;SDS011;42191;47.562;9.686;2022-11-15T00:30:01;36.17;;;33.97;;
56285;SDS011;42191;47.562;9.686;2022-11-15T00:32:30;34.88;;;32.78;;
56285;SDS011;42191;47.562;9.686;2022-11-15T00:34:57;34.30;;;32.20;;
56285;SDS011;42191;47.562;9.686;2022-11-15T00:37:23;35.50;;;33.30;;
56285;SDS011;42191;47.562;9.686;2022-11-15T00:39:49;35.92;;;33.83;;
56285;SDS011;42191;47.562;9.686;2022-11-15T00:42:15;35.08;;;32.97;;
56285;SDS011;42191;47.562;9.686;2022-11-15T00:44:41;36.78;;;34.58;;
56285;SDS011;42191;47.562;9.686;2022-11-15T00:47:07;36.85;;;34.65;;
56285;SDS011;42191;47.562;9.686;2022-11-15T00:49:33;35.03;;;32.92;;
56285;SDS011;42191;47.562;9.686;2022-11-15T00:51:59;35.60;;;33.40;;
56285;SDS011;42191;47.562;9.686;2022-11-15T00:54:25;35.00;;;32.90;;
56285;SDS011;42191;47.562;9.686;2022-11-15T00:56:51;36.30;;;34.10;;
56285;SDS011;42191;47.562;9.686;2022-11-15T00:59:17;36.08;;;33.88;;
56285;SDS011;42191;47.562;9.686;2022-11-15T01:01:44;34.70;;;32.60;;
56285;SDS011;42191;47.562;9.686;2022-11-15T01:04:10;33.38;;;31.38;;
56285;SDS011;42191;47.562;9.686;2022-11-15T01:06:36;35.00;;;32.80;;
56285;SDS011;42191;47.562;9.686;2022-11-15T01:09:02;36.47;;;34.22;;
56285;SDS011;42191;47.562;9.686;2022-11-15T01:11:28;35.80;;;33.63;;
56285;SDS011;42191;47.562;9.686;2022-11-15T01:13:54;36.63;;;34.40;;
56285;SDS011;42191;47.562;9.686;2022-11-15T01:16:20;35.60;;;33.40;;
56285;SDS011;42191;47.562;9.686;2022-11-15T01:18:46;35.47;;;33.28;;
56285;SDS011;42191;47.562;9.686;2022-11-15T01:21:13;35.63;;;33.38;;
56285;SDS011;42191;47.562;9.686;2022-11-15T01:23:41;36.95;;;34.75;;
56285;SDS011;42191;47.562;9.686;2022-11-15T01:26:10;36.25;;;33.90;;
56285;SDS011;42191;47.562;9.686;2022-11-15T01:28:39;37.45;;;35.05;;
56285;SDS011;42191;47.562;9.686;2022-11-15T01:31:09;36.58;;;34.17;;
56285;SDS011;42191;47.562;9.686;2022-11-15T01:33:40;36.03;;;33.75;;
56285;SDS011;42191;47.562;9.686;2022-11-15T01:36:07;35.45;;;33.25;;
56285;SDS011;42191;47.562;9.686;2022-11-15T01:38:36;37.75;;;35.35;;
56285;SDS011;42191;47.562;9.686;2022-11-15T01:41:03;36.17;;;33.97;;
56285;SDS011;42191;47.562;9.686;2022-11-15T01:43:31;37.92;;;35.53;;
56285;SDS011;42191;47.562;9.686;2022-11-15T01:48:51;38.45;;;35.95;;
56285;SDS011;42191;47.562;9.686;2022-11-15T01:51:20;38.28;;;35.78;;
56285;SDS011;42191;47.562;9.686;2022-11-15T01:53:49;38.97;;;36.25;;
56285;SDS011;42191;47.562;9.686;2022-11-15T01:56:19;41.15;;;38.33;;
56285;SDS011;42191;47.562;9.686;2022-11-15T01:58:50;39.40;;;36.80;;
56285;SDS011;42191;47.562;9.686;2022-11-15T02:01:18;39.20;;;36.50;;
56285;SDS011;42191;47.562;9.686;2022-11-15T02:06:34;39.63;;;36.83;;
56285;SDS011;42191;47.562;9.686;2022-11-15T02:09:01;38.25;;;35.78;;
56285;SDS011;42191;47.562;9.686;2022-11-15T02:11:27;40.25;;;37.30;;
56285;SDS011;42191;47.562;9.686;2022-11-15T02:13:54;39.33;;;36.72;;
56285;SDS011;42191;47.562;9.686;2022-11-15T02:16:27;39.97;;;37.28;;
56285;SDS011;42191;47.562;9.686;2022-11-15T02:21:35;39.33;;;36.60;;
56285;SDS011;42191;47.562;9.686;2022-11-15T02:24:33;39.50;;;36.80;;
56285;SDS011;42191;47.562;9.686;2022-11-15T02:27:29;39.38;;;36.75;;
56285;SDS011;42191;47.562;9.686;2022-11-15T02:30:23;40.00;;;37.20;;
56285;SDS011;42191;47.562;9.686;2022-11-15T02:32:57;39.53;;;36.83;;
56285;SDS011;42191;47.562;9.686;2022-11-15T02:38:28;38.70;;;36.08;;
56285;SDS011;42191;47.562;9.686;2022-11-15T02:41:20;39.60;;;36.90;;
56285;SDS011;42191;47.562;9.686;2022-11-15T02:44:00;40.90;;;38.10;;
56285;SDS011;42191;47.562;9.686;2022-11-15T02:49:22;39.65;;;36.97;;
56285;SDS011;42191;47.562;9.686;2022-11-15T02:51:52;38.45;;;35.85;;
56285;SDS011;42191;47.562;9.686;2022-11-15T02:54:24;39.05;;;36.50;;
56285;SDS011;42191;47.562;9.686;2022-11-15T02:56:54;39.13;;;36.35;;
56285;SDS011;42191;47.562;9.686;2022-11-15T03:07:48;38.85;;;36.35;;
56285;SDS011;42191;47.562;9.686;2022-11-15T03:10:23;37.35;;;34.95;;
56285;SDS011;42191;47.562;9.686;2022-11-15T03:12:57;37.67;;;35.25;;
56285;SDS011;42191;47.562;9.686;2022-11-15T03:15:36;37.13;;;34.65;;
56285;SDS011;42191;47.562;9.686;2022-11-15T03:18:10;39.83;;;37.20;;
56285;SDS011;42191;47.562;9.686;2022-11-15T03:20:44;38.58;;;36.08;;
56285;SDS011;42191;47.562;9.686;2022-11-15T03:23:12;36.85;;;34.45;;
56285;SDS011;42191;47.562;9.686;2022-11-15T03:25:43;38.58;;;36.00;;
56285;SDS011;42191;47.562;9.686;2022-11-15T03:28:14;38.50;;;36.00;;
56285;SDS011;42191;47.562;9.686;2022-11-15T03:30:47;37.65;;;35.20;;
56285;SDS011;42191;47.562;9.686;2022-11-15T03:33:14;38.58;;;36.10;;
56285;SDS011;42191;47.562;9.686;2022-11-15T03:35:42;38.15;;;35.65;;
56285;SDS011;42191;47.562;9.686;2022-11-15T03:38:23;38.13;;;35.63;;
56285;SDS011;42191;47.562;9.686;2022-11-15T03:41:01;37.65;;;35.28;;
56285;SDS011;42191;47.562;9.686;2022-11-15T03:43:35;37.35;;;34.95;;
56285;SDS011;42191;47.562;9.686;2022-11-15T03:46:28;40.17;;;37.42;;
56285;SDS011;42191;47.562;9.686;2022-11-15T03:49:06;38.95;;;36.25;;
56285;SDS011;42191;47.562;9.686;2022-11-15T03:51:42;38.78;;;36.22;;
56285;SDS011;42191;47.562;9.686;2022-11-15T03:54:08;37.28;;;34.83;;
56285;SDS011;42191;47.562;9.686;2022-11-15T03:56:36;39.63;;;36.83;;
56285;SDS011;42191;47.562;9.686;2022-11-15T03:59:02;37.13;;;34.67;;
56285;SDS011;42191;47.562;9.686;2022-11-15T04:01:28;38.58;;;36.08;;
56285;SDS011;42191;47.562;9.686;2022-11-15T04:03:55;36.47;;;34.08;;
56285;SDS011;42191;47.562;9.686;2022-11-15T04:06:21;37.53;;;35.05;;
56285;SDS011;42191;47.562;9.686;2022-11-15T04:08:47;38.35;;;35.85;;
56285;SDS011;42191;47.562;9.686;2022-11-15T04:11:13;37.55;;;35.10;;
56285;SDS011;42191;47.562;9.686;2022-11-15T04:13:39;38.03;;;35.53;;
56285;SDS011;42191;47.562;9.686;2022-11-15T04:16:05;37.42;;;34.92;;
56285;SDS011;42191;47.562;9.686;2022-11-15T04:18:31;38.83;;;36.33;;
56285;SDS011;42191;47.562;9.686;2022-11-15T04:20:57;37.75;;;35.35;;
56285;SDS011;42191;47.562;9.686;2022-11-15T04:23:42;40.15;;;37.55;;
56285;SDS011;42191;47.562;9.686;2022-11-15T04:26:27;38.78;;;36.28;;
56285;SDS011;42191;47.562;9.686;2022-11-15T04:28:53;39.28;;;36.72;;
56285;SDS011;42191;47.562;9.686;2022-11-15T04:31:37;39.20;;;36.53;;
56285;SDS011;42191;47.562;9.686;2022-11-15T04:34:04;39.80;;;37.20;;
56285;SDS011;42191;47.562;9.686;2022-11-15T04:36:30;39.45;;;36.75;;
56285;SDS011;42191;47.562;9.686;2022-11-15T04:39:15;38.42;;;35.80;;
56285;SDS011;42191;47.562;9.686;2022-11-15T04:41:41;37.67;;;35.13;;
56285;SDS011;42191;47.562;9.686;2022-11-15T04:44:07;40.33;;;37.35;;
56285;SDS011;42191;47.562;9.686;2022-11-15T04:46:34;43.50;;;39.30;;
56285;SDS011;42191;47.562;9.686;2022-11-15T04:49:00;42.50;;;37.92;;
56285;SDS011;42191;47.562;9.686;2022-11-15T04:51:26;39.38;;;36.35;;
56285;SDS011;42191;47.562;9.686;2022-11-15T04:53:53;41.55;;;38.63;;
56285;SDS011;42191;47.562;9.686;2022-11-15T04:56:19;38.97;;;36.17;;
56285;SDS011;42191;47.562;9.686;2022-11-15T04:58:45;40.35;;;37.28;;
56285;SDS011;42191;47.562;9.686;2022-11-15T05:01:14;41.65;;;38.55;;
56285;SDS011;42191;47.562;9.686;2022-11-15T05:03:44;41.00;;;38.00;;
56285;SDS011;42191;47.562;9.686;2022-11-15T05:06:29;41.80;;;38.90;;
56285;SDS011;42191;47.562;9.686;2022-11-15T05:08:55;38.65;;;35.95;;
56285;SDS011;42191;47.562;9.686;2022-11-15T05:11:22;43.10;;;40.10;;
56285;SDS011;42191;47.562;9.686;2022-11-15T05:13:48;41.60;;;38.72;;
56285;SDS011;42191;47.562;9.686;2022-11-15T05:16:15;39.50;;;36.80;;
56285;SDS011;42191;47.562;9.686;2022-11-15T05:18:41;40.67;;;37.78;;
56285;SDS011;42191;47.562;9.686;2022-11-15T05:21:08;38.78;;;35.97;;
56285;SDS011;42191;47.562;9.686;2022-11-15T05:23:39;38.60;;;36.00;;
56285;SDS011;42191;47.562;9.686;2022-11-15T05:26:06;39.38;;;36.67;;
56285;SDS011;42191;47.562;9.686;2022-11-15T05:28:33;38.03;;;35.42;;
56285;SDS011;42191;47.562;9.686;2022-11-15T05:31:03;39.05;;;36.38;;
56285;SDS011;42191;47.562;9.686;2022-11-15T05:33:31;37.53;;;34.92;;
56285;SDS011;42191;47.562;9.686;2022-11-15T05:36:00;39.58;;;36.78;;
56285;SDS011;42191;47.562;9.686;2022-11-15T05:38:30;42.28;;;39.33;;
56285;SDS011;42191;47.562;9.686;2022-11-15T05:40:56;41.28;;;38.40;;
56285;SDS011;42191;47.562;9.686;2022-11-15T05:43:23;43.10;;;40.00;;
56285;SDS011;42191;47.562;9.686;2022-11-15T05:45:50;43.90;;;40.90;;
56285;SDS011;42191;47.562;9.686;2022-11-15T05:48:16;42.25;;;39.28;;
56285;SDS011;42191;47.562;9.686;2022-11-15T05:50:43;40.92;;;38.03;;
56285;SDS011;42191;47.562;9.686;2022-11-15T05:53:11;43.28;;;40.28;;
56285;SDS011;42191;47.562;9.686;2022-11-15T05:55:40;40.90;;;38.00;;
56285;SDS011;42191;47.562;9.686;2022-11-15T05:58:07;41.63;;;38.63;;
56285;SDS011;42191;47.562;9.686;2022-11-15T06:00:33;40.72;;;37.88;;
56285;SDS011;42191;47.562;9.686;2022-11-15T06:02:59;42.20;;;39.13;;
56285;SDS011;42191;47.562;9.686;2022-11-15T06:05:26;41.58;;;38.67;;
56285;SDS011;42191;47.562;9.686;2022-11-15T06:07:52;41.05;;;38.15;;
56285;SDS011;42191;47.562;9.686;2022-11-15T06:10:22;41.22;;;37.92;;
56285;SDS011;42191;47.562;9.686;2022-11-15T06:12:55;41.35;;;38.33;;
56285;SDS011;42191;47.562;9.686;2022-11-15T06:15:26;40.03;;;37.22;;
56285;SDS011;42191;47.562;9.686;2022-11-15T06:17:52;41.78;;;38.88;;
56285;SDS011;42191;47.562;9.686;2022-11-15T06:20:22;40.08;;;37.38;;
56285;SDS011;42191;47.562;9.686;2022-11-15T06:22:49;41.03;;;38.17;;
56285;SDS011;42191;47.562;9.686;2022-11-15T06:25:15;41.05;;;38.35;;
56285;SDS011;42191;47.562;9.686;2022-11-15T06:27:41;40.53;;;37.47;;
56285;SDS011;42191;47.562;9.686;2022-11-15T06:30:07;40.35;;;37.55;;
56285;SDS011;42191;47.562;9.686;2022-11-15T06:32:34;39.53;;;36.85;;
56285;SDS011;42191;47.562;9.686;2022-11-15T06:35:00;40.30;;;37.53;;
56285;SDS011;42191;47.562;9.686;2022-11-15T06:37:26;40.10;;;37.40;;
56285;SDS011;42191;47.562;9.686;2022-11-15T06:39:52;40.25;;;37.65;;
56285;SDS011;42191;47.562;9.686;2022-11-15T06:42:18;40.30;;;37.55;;
56285;SDS011;42191;47.562;9.686;2022-11-15T06:44:44;38.53;;;36.00;;
56285;SDS011;42191;47.562;9.686;2022-11-15T06:47:10;41.97;;;39.20;;
56285;SDS011;42191;47.562;9.686;2022-11-15T06:49:36;39.13;;;36.50;;
56285;SDS011;42191;47.562;9.686;2022-11-15T06:52:02;40.13;;;37.47;;
56285;SDS011;42191;47.562;9.686;2022-11-15T06:54:28;40.15;;;37.30;;
56285;SDS011;42191;47.562;9.686;2022-11-15T06:56:54;43.05;;;40.17;;
56285;SDS011;42191;47.562;9.686;2022-11-15T06:59:21;42.03;;;39.33;;
56285;SDS011;42191;47.562;9.686;2022-11-15T07:01:47;41.10;;;38.38;;
56285;SDS011;42191;47.562;9.686;2022-11-15T07:04:14;38.28;;;35.88;;
56285;SDS011;42191;47.562;9.686;2022-11-15T07:06:40;39.47;;;36.92;;
56285;SDS011;42191;47.562;9.686;2022-11-15T07:09:06;39.50;;;36.92;;
56285;SDS011;42191;47.562;9.686;2022-11-15T07:11:32;39.58;;;37.08;;
56285;SDS011;42191;47.562;9.686;2022-11-15T07:13:59;39.53;;;37.03;;
56285;SDS011;42191;47.562;9.686;2022-11-15T07:16:25;38.88;;;36.40;;
56285;SDS011;42191;47.562;9.686;2022-11-15T07:18:51;38.80;;;36.25;;
56285;SDS011;42191;47.562;9.686;2022-11-15T07:21:18;39.85;;;37.35;;
56285;SDS011;42191;47.562;9.686;2022-11-15T07:23:44;39.58;;;36.97;;
56285;SDS011;42191;47.562;9.686;2022-11-15T07:26:10;39.00;;;36.47;;
56285;SDS011;42191;47.562;9.686;2022-11-15T07:28:36;38.97;;;36.47;;
56285;SDS011;42191;47.562;9.686;2022-11-15T07:31:03;37.45;;;34.97;;
56285;SDS011;42191;47.562;9.686;2022-11-15T07:33:30;38.20;;;35.67;;
56285;SDS011;42191;47.562;9.686;2022-11-15T07:36:00;40.50;;;37.78;;
56285;SDS011;42191;47.562;9.686;2022-11-15T07:38:27;41.22;;;38.55;;
56285;SDS011;42191;47.562;9.686;2022-11-15T07:40:57;37.75;;;35.35;;
56285;SDS011;42191;47.562;9.686;2022-11-15T07:43:24;40.63;;;38.03;;
56285;SDS011;42191;47.562;9.686;2022-11-15T07:45:52;38.75;;;36.35;;
56285;SDS011;42191;47.562;9.686;2022-11-15T07:48:19;40.10;;;37.50;;
56285;SDS011;42191;47.562;9.686;2022-11-15T07:50:45;40.75;;;38.15;;
56285;SDS011;42191;47.562;9.686;2022-11-15T07:53:11;40.55;;;37.95;;
56285;SDS011;42191;47.562;9.686;2022-11-15T07:55:37;40.05;;;37.55;;
56285;SDS011;42191;47.562;9.686;2022-11-15T07:58:05;38.15;;;35.65;;
56285;SDS011;42191;47.562;9.686;2022-11-15T08:00:33;37.63;;;35.20;;
56285;SDS011;42191;47.562;9.686;2022-11-15T08:03:03;39.05;;;36.53;;
56285;SDS011;42191;47.562;9.686;2022-11-15T08:05:36;38.83;;;36.17;;
56285;SDS011;42191;47.562;9.686;2022-11-15T08:08:04;40.75;;;38.10;;
56285;SDS011;42191;47.562;9.686;2022-11-15T08:10:31;39.25;;;36.70;;
56285;SDS011;42191;47.562;9.686;2022-11-15T08:13:15;38.85;;;36.25;;
56285;SDS011;42191;47.562;9.686;2022-11-15T08:15:42;37.40;;;35.10;;
56285;SDS011;42191;47.562;9.686;2022-11-15T08:18:10;35.78;;;33.47;;
56285;SDS011;42191;47.562;9.686;2022-11-15T08:20:38;40.30;;;37.72;;
56285;SDS011;42191;47.562;9.686;2022-11-15T08:23:04;38.40;;;36.00;;
56285;SDS011;42191;47.562;9.686;2022-11-15T08:25:31;38.40;;;35.95;;
56285;SDS011;42191;47.562;9.686;2022-11-15T08:28:00;39.97;;;37.42;;
56285;SDS011;42191;47.562;9.686;2022-11-15T08:30:28;40.13;;;37.55;;
56285;SDS011;42191;47.562;9.686;2022-11-15T08:32:56;37.63;;;35.08;;
56285;SDS011;42191;47.562;9.686;2022-11-15T08:35:23;38.35;;;35.90;;
56285;SDS011;42191;47.562;9.686;2022-11-15T08:37:49;38.90;;;36.47;;
56285;SDS011;42191;47.562;9.686;2022-11-15T08:40:18;38.33;;;35.80;;
56285;SDS011;42191;47.562;9.686;2022-11-15T08:42:47;36.00;;;33.50;;
56285;SDS011;42191;47.562;9.686;2022-11-15T08:45:14;39.05;;;36.35;;
56285;SDS011;42191;47.562;9.686;2022-11-15T08:47:40;38.55;;;35.95;;
56285;SDS011;42191;47.562;9.686;2022-11-15T08:50:07;36.88;;;34.47;;
56285;SDS011;42191;47.562;9.686;2022-11-15T08:52:33;37.30;;;34.80;;
56285;SDS011;42191;47.562;9.686;2022-11-15T08:54:59;39.83;;;37.17;;
56285;SDS011;42191;47.562;9.686;2022-11-15T08:57:28;36.38;;;34.08;;
56285;SDS011;42191;47.562;9.686;2022-11-15T08:59:57;38.65;;;35.83;;
56285;SDS011;42191;47.562;9.686;2022-11-15T09:02:23;39.25;;;36.35;;
56285;SDS011;42191;47.562;9.686;2022-11-15T09:04:49;40.10;;;37.10;;
56285;SDS011;42191;47.562;9.686;2022-11-15T09:07:16;39.75;;;37.15;;
56285;SDS011;42191;47.562;9.686;2022-11-15T09:09:42;38.97;;;36.33;;
56285;SDS011;42191;47.562;9.686;2022-11-15T09:12:08;38.80;;;36.13;;
56285;SDS011;42191;47.562;9.686;2022-11-15T09:14:35;38.13;;;35.38;;
56285;SDS011;42191;47.562;9.686;2022-11-15T09:17:01;39.35;;;36.60;;
56285;SDS011;42191;47.562;9.686;2022-11-15T09:19:28;39.45;;;36.88;;
56285;SDS011;42191;47.562;9.686;2022-11-15T09:21:54;38.13;;;34.67;;
56285;SDS011;42191;47.562;9.686;2022-11-15T09:24:20;40.30;;;37.40;;
56285;SDS011;42191;47.562;9.686;2022-11-15T09:26:46;39.30;;;36.50;;
56285;SDS011;42191;47.562;9.686;2022-11-15T09:29:16;38.13;;;35.60;;
56285;SDS011;42191;47.562;9.686;2022-11-15T09:31:42;37.97;;;35.47;;
56285;SDS011;42191;47.562;9.686;2022-11-15T09:34:08;37.15;;;34.65;;
56285;SDS011;42191;47.562;9.686;2022-11-15T09:36:34;37.20;;;34.70;;
56285;SDS011;42191;47.562;9.686;2022-11-15T09:39:01;35.35;;;33.05;;
56285;SDS011;42191;47.562;9.686;2022-11-15T09:44:12;36.47;;;34.05;;
56285;SDS011;42191;47.562;9.686;2022-11-15T09:46:59;38.83;;;36.35;;
56285;SDS011;42191;47.562;9.686;2022-11-15T09:49:32;36.85;;;34.20;;
56285;SDS011;42191;47.562;9.686;2022-11-15T09:51:58;38.35;;;35.80;;
56285;SDS011;42191;47.562;9.686;2022-11-15T09:57:10;39.50;;;36.70;;
56285;SDS011;42191;47.562;9.686;2022-11-15T10:04:58;41.47;;;38.63;;
56285;SDS011;42191;47.562;9.686;2022-11-15T10:08:16;39.05;;;36.45;;
56285;SDS011;42191;47.562;9.686;2022-11-15T10:10:41;38.38;;;35.78;;
56285;SDS011;42191;47.562;9.686;2022-11-15T10:13:33;38.55;;;35.95;;
56285;SDS011;42191;47.562;9.686;2022-11-15T10:16:07;39.38;;;36.78;;
56285;SDS011;42191;47.562;9.686;2022-11-15T10:18:59;40.65;;;37.95;;
56285;SDS011;42191;47.562;9.686;2022-11-15T10:21:45;39.42;;;36.83;;
56285;SDS011;42191;47.562;9.686;2022-11-15T10:24:31;37.67;;;35.13;;
56285;SDS011;42191;47.562;9.686;2022-11-15T10:27:10;40.25;;;37.33;;
56285;SDS011;42191;47.562;9.686;2022-11-15T10:29:44;38.45;;;35.78;;
56285;SDS011;42191;47.562;9.686;2022-11-15T10:32:15;36.78;;;34.25;;
56285;SDS011;42191;47.562;9.686;2022-11-15T10:34:42;37.65;;;35.00;;
56285;SDS011;42191;47.562;9.686;2022-11-15T10:37:09;36.92;;;34.42;;
56285;SDS011;42191;47.562;9.686;2022-11-15T10:39:35;37.67;;;35.08;;
56285;SDS011;42191;47.562;9.686;2022-11-15T10:42:15;38.95;;;36.40;;
56285;SDS011;42191;47.562;9.686;2022-11-15T10:44:49;39.35;;;36.65;;
56285;SDS011;42191;47.562;9.686;2022-11-15T10:50:39;40.40;;;37.60;;
56285;SDS011;42191;47.562;9.686;2022-11-15T10:52:54;39.92;;;36.88;;
56285;SDS011;42191;47.562;9.686;2022-11-15T10:55:22;39.95;;;37.13;;
56285;SDS011;42191;47.562;9.686;2022-11-15T10:57:52;42.90;;;39.60;;
56285;SDS011;42191;47.562;9.686;2022-11-15T11:02:57;45.33;;;41.72;;
56285;SDS011;42191;47.562;9.686;2022-11-15T11:05:30;46.75;;;42.88;;
56285;SDS011;42191;47.562;9.686;2022-11-15T11:07:59;40.37;;;37.30;;
56285;SDS011;42191;47.562;9.686;2022-11-15T11:10:30;43.00;;;39.60;;
56285;SDS011;42191;47.562;9.686;2022-11-15T11:13:32;42.47;;;39.22;;
56285;SDS011;42191;47.562;9.686;2022-11-15T11:18:34;44.53;;;41.25;;
56285;SDS011;42191;47.562;9.686;2022-11-15T11:21:22;42.33;;;39.28;;
56285;SDS011;42191;47.562;9.686;2022-11-15T11:25:13;43.90;;;40.67;;
56285;SDS011;42191;47.562;9.686;2022-11-15T11:32:32;42.78;;;39.75;;
56285;SDS011;42191;47.562;9.686;2022-11-15T11:35:28;41.90;;;38.67;;
56285;SDS011;42191;47.562;9.686;2022-11-15T11:41:04;41.50;;;38.40;;
56285;SDS011;42191;47.562;9.686;2022-11-15T11:44:05;40.97;;;38.08;;
56285;SDS011;42191;47.562;9.686;2022-11-15T11:49:20;40.53;;;37.60;;
56285;SDS011;42191;47.562;9.686;2022-11-15T11:52:02;42.58;;;39.35;;
56285;SDS011;42191;47.562;9.686;2022-11-15T11:57:10;43.58;;;40.22;;
56285;SDS011;42191;47.562;9.686;2022-11-15T11:59:54;40.28;;;37.38;;
56285;SDS011;42191;47.562;9.686;2022-11-15T12:02:29;40.90;;;38.03;;
56285;SDS011;42191;47.562;9.686;2022-11-15T12:05:07;42.72;;;39.63;;
56285;SDS011;42191;47.562;9.686;2022-11-15T12:07:43;42.47;;;39.38;;
56285;SDS011;42191;47.562;9.686;2022-11-15T12:10:17;40.78;;;37.70;;
56285;SDS011;42191;47.562;9.686;2022-11-15T12:15:55;41.25;;;38.05;;
56285;SDS011;42191;47.562;9.686;2022-11-15T12:18:30;41.70;;;38.67;;
56285;SDS011;42191;47.562;9.686;2022-11-15T12:21:00;40.38;;;37.45;;
56285;SDS011;42191;47.562;9.686;2022-11-15T12:23:49;38.58;;;35.85;;
56285;SDS011;42191;47.562;9.686;2022-11-15T12:26:24;40.38;;;37.38;;
56285;SDS011;42191;47.562;9.686;2022-11-15T12:29:09;40.88;;;37.88;;
56285;SDS011;42191;47.562;9.686;2022-11-15T12:31:42;40.75;;;37.75;;
56285;SDS011;42191;47.562;9.686;2022-11-15T12:34:28;40.70;;;37.47;;
56285;SDS011;42191;47.562;9.686;2022-11-15T12:37:01;41.13;;;38.05;;
56285;SDS011;42191;47.562;9.686;2022-11-15T12:45:32;40.13;;;37.22;;
56285;SDS011;42191;47.562;9.686;2022-11-15T12:58:50;40.00;;;37.15;;
56285;SDS011;42191;47.562;9.686;2022-11-15T13:06:59;40.42;;;37.50;;
56285;SDS011;42191;47.562;9.686;2022-11-15T13:11:54;40.42;;;37.50;;
56285;SDS011;42191;47.562;9.686;2022-11-15T13:19:54;38.85;;;36.13;;
56285;SDS011;42191;47.562;9.686;2022-11-15T13:22:23;39.85;;;37.05;;
56285;SDS011;42191;47.562;9.686;2022-11-15T13:27:44;39.10;;;36.30;;
56285;SDS011;42191;47.562;9.686;2022-11-15T13:30:21;40.97;;;37.85;;
56285;SDS011;42191;47.562;9.686;2022-11-15T13:32:49;38.45;;;35.75;;
56285;SDS011;42191;47.562;9.686;2022-11-15T13:35:23;38.03;;;35.33;;
56285;SDS011;42191;47.562;9.686;2022-11-15T13:37:52;38.80;;;36.08;;
56285;SDS011;42191;47.562;9.686;2022-11-15T13:40:27;39.33;;;36.50;;
56285;SDS011;42191;47.562;9.686;2022-11-15T13:42:58;39.97;;;37.15;;
56285;SDS011;42191;47.562;9.686;2022-11-15T13:45:38;41.33;;;38.38;;
56285;SDS011;42191;47.562;9.686;2022-11-15T13:48:04;40.67;;;37.78;;
56285;SDS011;42191;47.562;9.686;2022-11-15T13:50:33;40.47;;;37.53;;
56285;SDS011;42191;47.562;9.686;2022-11-15T13:53:02;39.30;;;36.50;;
56285;SDS011;42191;47.562;9.686;2022-11-15T13:55:30;41.45;;;38.10;;
56285;SDS011;42191;47.562;9.686;2022-11-15T13:58:01;39.92;;;37.03;;
56285;SDS011;42191;47.562;9.686;2022-11-15T14:00:41;39.75;;;36.75;;
56285;SDS011;42191;47.562;9.686;2022-11-15T14:03:22;37.20;;;34.35;;
56285;SDS011;42191;47.562;9.686;2022-11-15T14:06:10;38.00;;;34.97;;
56285;SDS011;42191;47.562;9.686;2022-11-15T14:08:40;38.88;;;36.10;;
56285;SDS011;42191;47.562;9.686;2022-11-15T14:11:22;37.20;;;34.47;;
56285;SDS011;42191;47.562;9.686;2022-11-15T14:16:43;36.30;;;33.78;;
56285;SDS011;42191;47.562;9.686;2022-11-15T14:19:11;37.95;;;34.75;;
56285;SDS011;42191;47.562;9.686;2022-11-15T14:24:43;37.65;;;34.95;;
56285;SDS011;42191;47.562;9.686;2022-11-15T14:29:53;37.85;;;35.05;;
56285;SDS011;42191;47.562;9.686;2022-11-15T14:32:23;39.05;;;36.30;;
56285;SDS011;42191;47.562;9.686;2022-11-15T14:34:58;38.63;;;35.83;;
56285;SDS011;42191;47.562;9.686;2022-11-15T14:37:26;39.20;;;36.03;;
56285;SDS011;42191;47.562;9.686;2022-11-15T14:39:56;41.00;;;37.85;;
56285;SDS011;42191;47.562;9.686;2022-11-15T14:42:22;39.15;;;36.35;;
56285;SDS011;42191;47.562;9.686;2022-11-15T14:44:49;40.47;;;37.35;;
56285;SDS011;42191;47.562;9.686;2022-11-15T14:47:16;38.70;;;35.80;;
56285;SDS011;42191;47.562;9.686;2022-11-15T14:49:42;39.33;;;36.58;;
56285;SDS011;42191;47.562;9.686;2022-11-15T14:52:25;40.13;;;37.22;;
56285;SDS011;42191;47.562;9.686;2022-11-15T14:54:53;41.38;;;37.95;;
56285;SDS011;42191;47.562;9.686;2022-11-15T14:57:23;41.08;;;38.20;;
56285;SDS011;42191;47.562;9.686;2022-11-15T14:59:49;39.78;;;36.97;;
56285;SDS011;42191;47.562;9.686;2022-11-15T15:02:25;39.08;;;36.25;;
56285;SDS011;42191;47.562;9.686;2022-11-15T15:04:52;40.50;;;37.63;;
56285;SDS011;42191;47.562;9.686;2022-11-15T15:07:18;39.95;;;37.00;;
56285;SDS011;42191;47.562;9.686;2022-11-15T15:09:45;39.63;;;36.78;;
56285;SDS011;42191;47.562;9.686;2022-11-15T15:12:19;40.50;;;37.47;;
56285;SDS011;42191;47.562;9.686;2022-11-15T15:14:47;40.15;;;37.15;;
56285;SDS011;42191;47.562;9.686;2022-11-15T15:17:14;41.95;;;39.00;;
56285;SDS011;42191;47.562;9.686;2022-11-15T15:19:41;39.13;;;36.03;;
56285;SDS011;42191;47.562;9.686;2022-11-15T15:22:12;40.65;;;37.25;;
56285;SDS011;42191;47.562;9.686;2022-11-15T15:27:07;38.30;;;35.28;;
56285;SDS011;42191;47.562;9.686;2022-11-15T15:29:34;39.28;;;36.35;;
56285;SDS011;42191;47.562;9.686;2022-11-15T15:32:00;37.15;;;34.45;;
56285;SDS011;42191;47.562;9.686;2022-11-15T15:34:26;38.28;;;35.55;;
56285;SDS011;42191;47.562;9.686;2022-11-15T15:37:08;38.72;;;35.92;;
56285;SDS011;42191;47.562;9.686;2022-11-15T15:39:47;37.42;;;34.53;;
56285;SDS011;42191;47.562;9.686;2022-11-15T15:42:14;40.42;;;37.53;;
56285;SDS011;42191;47.562;9.686;2022-11-15T15:44:41;38.17;;;35.17;;
56285;SDS011;42191;47.562;9.686;2022-11-15T15:47:22;39.20;;;35.95;;
56285;SDS011;42191;47.562;9.686;2022-11-15T15:49:49;37.17;;;34.58;;
56285;SDS011;42191;47.562;9.686;2022-11-15T15:52:16;37.55;;;34.85;;
56285;SDS011;42191;47.562;9.686;2022-11-15T15:54:42;38.30;;;35.60;;
56285;SDS011;42191;47.562;9.686;2022-11-15T15:57:08;38.15;;;35.53;;
56285;SDS011;42191;47.562;9.686;2022-11-15T15:59:38;37.45;;;34.85;;
56285;SDS011;42191;47.562;9.686;2022-11-15T16:02:04;40.50;;;37.47;;
56285;SDS011;42191;47.562;9.686;2022-11-15T16:04:31;39.38;;;36.58;;
56285;SDS011;42191;47.562;9.686;2022-11-15T16:07:00;39.45;;;36.55;;
56285;SDS011;42191;47.562;9.686;2022-11-15T16:09:27;39.35;;;36.60;;
56285;SDS011;42191;47.562;9.686;2022-11-15T16:12:12;39.67;;;36.78;;
56285;SDS011;42191;47.562;9.686;2022-11-15T16:14:39;38.55;;;35.78;;
56285;SDS011;42191;47.562;9.686;2022-11-15T16:17:05;38.00;;;35.33;;
56285;SDS011;42191;47.562;9.686;2022-11-15T16:19:33;39.60;;;36.53;;
56285;SDS011;42191;47.562;9.686;2022-11-15T16:22:00;38.50;;;35.70;;